Time;durP1;ratioP1;P1;durP2;ratioP2;P2;SDS_P1;SDS_P2;PMS_P1;PMS_P2;Temp;Humidity;BMP_temperature;BMP_pressure;BME280_temperature;BME280_humidity;BME280_pressure;Samples;Min_cycle;Max_cycle;Signal;HPM_P1;HPM_P2
2023/12/21 00:01:36;;;;;;;299.58;10.93;;;;;;;22.11;54.21;98277.44;7279253;19;130309;-38
2023/12/21 00:04:04;;;;;;;358.33;12.85;;;;;;;22.09;54.14;98273.34;7278834;19;130167;-37
2023/12/21 00:06:30;;;;;;;341.38;11.93;;;;;;;22.10;53.71;98269.75;7278616;19;131939;-38
2023/12/21 00:08:56;;;;;;;266.52;9.45;;;;;;;22.11;53.71;98260.91;7278547;19;131171;-37
2023/12/21 00:11:21;;;;;;;356.50;13.52;;;;;;;22.10;53.44;98251.44;7277023;19;130750;-37
2023/12/21 00:13:47;;;;;;;331.47;11.87;;;;;;;22.08;53.61;98245.56;7279978;19;130580;-37
2023/12/21 00:16:13;;;;;;;283.58;10.38;;;;;;;22.09;53.70;98252.41;7279183;19;131935;-38
2023/12/21 00:18:38;;;;;;;334.35;12.73;;;;;;;22.09;54.23;98236.72;7277443;19;129403;-38
2023/12/21 00:21:03;;;;;;;316.27;11.05;;;;;;;21.98;53.37;98232.72;7278331;19;129613;-37
2023/12/21 00:23:29;;;;;;;345.65;12.55;;;;;;;22.07;53.73;98230.81;7279786;19;132508;-37
2023/12/21 00:25:54;;;;;;;288.17;10.65;;;;;;;22.06;54.14;98223.97;7279724;19;130402;-37
2023/12/21 00:28:19;;;;;;;301.52;10.68;;;;;;;22.07;53.76;98228.22;7278205;19;132488;-37
2023/12/21 00:30:45;;;;;;;302.67;10.77;;;;;;;21.92;53.69;98196.75;7276409;19;132152;-37
2023/12/21 00:33:10;;;;;;;406.85;15.07;;;;;;;22.05;54.03;98214.50;7278970;19;130750;-38
2023/12/21 00:35:36;;;;;;;297.00;10.87;;;;;;;22.04;54.33;98197.16;7279500;19;130700;-39
2023/12/21 00:38:02;;;;;;;327.65;12.05;;;;;;;21.93;53.82;98180.88;7279097;19;130431;-37
2023/12/21 00:40:27;;;;;;;350.35;12.80;;;;;;;22.02;54.29;98188.66;7273750;19;130930;-37
2023/12/21 00:42:53;;;;;;;364.33;13.38;;;;;;;21.92;54.20;98183.69;7277321;19;131137;-37
2023/12/21 00:45:18;;;;;;;290.17;10.40;;;;;;;22.01;54.14;98187.06;7277718;19;131278;-38
2023/12/21 00:47:43;;;;;;;321.85;11.55;;;;;;;22.01;53.96;98187.06;7277738;19;130822;-38
2023/12/21 00:50:09;;;;;;;364.02;13.68;;;;;;;22.01;54.29;98176.56;7275800;19;130696;-37
2023/12/21 00:52:34;;;;;;;331.97;12.20;;;;;;;21.86;53.68;98160.84;7276228;19;132541;-37
2023/12/21 00:55:00;;;;;;;335.25;12.45;;;;;;;21.98;53.62;98170.69;7277665;19;131034;-37
2023/12/21 00:57:25;;;;;;;282.75;9.90;;;;;;;21.98;53.87;98156.00;7277779;19;132292;-38
2023/12/21 00:59:50;;;;;;;334.80;12.30;;;;;;;21.98;54.03;98161.25;7277625;19;129839;-37
2023/12/21 01:02:16;;;;;;;340.17;12.52;;;;;;;21.96;53.90;98159.59;7276155;19;131796;-38
2023/12/21 01:04:41;;;;;;;302.00;10.93;;;;;;;21.96;54.05;98149.13;7277505;19;131054;-38
2023/12/21 01:07:07;;;;;;;327.30;11.73;;;;;;;21.95;54.36;98142.28;7277932;19;130244;-36
2023/12/21 01:09:32;;;;;;;405.33;14.73;;;;;;;21.83;53.75;98117.50;7276356;19;129718;-38
2023/12/21 01:11:57;;;;;;;289.10;10.27;;;;;;;21.94;53.90;98135.44;7277536;19;129950;-36
2023/12/21 01:14:23;;;;;;;279.65;10.02;;;;;;;21.93;53.91;98133.78;7276458;19;130502;-38
2023/12/21 01:16:48;;;;;;;288.85;10.35;;;;;;;21.94;53.98;98124.97;7276148;19;131809;-37
2023/12/21 01:19:14;;;;;;;410.40;15.13;;;;;;;21.93;54.67;98127.75;7276877;19;131061;-37
2023/12/21 01:21:39;;;;;;;310.53;10.93;;;;;;;21.94;54.08;98129.38;7277130;19;131013;-37
2023/12/21 01:24:05;;;;;;;296.35;10.65;;;;;;;21.92;54.18;98121.69;7277551;19;131526;-37
2023/12/21 01:26:31;;;;;;;326.73;11.80;;;;;;;21.91;54.08;98117.44;7275610;19;131105;-37
2023/12/21 01:28:56;;;;;;;363.70;12.83;;;;;;;21.91;54.50;98114.81;7277198;19;129363;-37
2023/12/21 01:31:21;;;;;;;333.60;12.23;;;;;;;21.91;53.91;98119.25;7275715;19;129824;-38
2023/12/21 01:33:47;;;;;;;271.33;9.48;;;;;;;21.86;54.25;98100.66;7277594;19;131636;-36
2023/12/21 01:36:12;;;;;;;339.30;12.03;;;;;;;21.89;54.22;98103.75;7277112;19;130049;-37
2023/12/21 01:38:38;;;;;;;384.98;14.35;;;;;;;21.90;53.80;98086.22;7274794;19;129868;-38
2023/12/21 01:41:03;;;;;;;294.42;10.52;;;;;;;21.88;54.16;98089.03;7276753;19;131119;-37
2023/12/21 01:43:28;;;;;;;296.83;11.13;;;;;;;21.89;54.06;98095.06;7274472;19;131350;-38
2023/12/21 01:45:56;;;;;;;382.57;14.20;;;;;;;21.88;54.25;98091.63;7275952;19;130033;-38
2023/12/21 01:48:22;;;;;;;359.08;12.95;;;;;;;21.86;53.97;98070.09;7276135;19;131347;-38
2023/12/21 01:50:47;;;;;;;298.42;10.65;;;;;;;21.85;54.27;98071.06;7274508;19;130910;-36
2023/12/21 01:53:15;;;;;;;305.70;11.00;;;;;;;21.84;54.10;98066.84;7276706;19;131315;-37
2023/12/21 01:55:42;;;;;;;389.67;14.13;;;;;;;21.86;54.59;98074.50;7276495;19;131637;-38
2023/12/21 01:58:09;;;;;;;316.55;11.07;;;;;;;21.85;54.18;98067.63;7276476;19;129636;-37
2023/12/21 02:00:34;;;;;;;306.27;11.10;;;;;;;21.84;54.58;98064.22;7274641;19;134031;-37
2023/12/21 02:03:00;;;;;;;299.23;11.07;;;;;;;21.83;54.08;98065.19;7275880;19;131177;-38
2023/12/21 02:05:26;;;;;;;318.77;11.25;;;;;;;21.83;54.28;98054.72;7276296;19;130918;-37
2023/12/21 02:07:51;;;;;;;379.73;14.55;;;;;;;21.83;54.19;98044.25;7275731;19;130362;-37
2023/12/21 02:10:17;;;;;;;300.25;10.73;;;;;;;21.82;54.82;98042.66;7275048;19;130177;-37
2023/12/21 02:12:42;;;;;;;315.85;11.15;;;;;;;21.81;54.31;98045.44;7273074;19;130353;-37
2023/12/21 02:15:08;;;;;;;343.65;12.10;;;;;;;21.80;53.88;98035.97;7276930;19;131234;-37
2023/12/21 02:17:36;;;;;;;263.53;9.50;;;;;;;21.81;54.48;98038.44;7277214;19;129838;-37
2023/12/21 02:20:01;;;;;;;327.33;11.85;;;;;;;21.80;54.75;98023.69;7274558;19;130685;-38
2023/12/21 02:22:29;;;;;;;337.90;12.27;;;;;;;21.79;54.24;98024.69;7272726;19;130429;-36
2023/12/21 02:24:55;;;;;;;383.98;13.43;;;;;;;21.78;54.85;98038.75;7275579;19;129736;-37
2023/12/21 02:27:21;;;;;;;307.30;11.07;;;;;;;21.78;54.82;98014.41;7279276;19;129054;-37
2023/12/21 02:29:46;;;;;;;300.10;10.53;;;;;;;21.78;54.28;98015.22;7282738;19;130879;-38
2023/12/21 02:32:11;;;;;;;285.52;10.27;;;;;;;21.65;54.97;97990.66;7280558;19;132284;-37
2023/12/21 02:34:37;;;;;;;357.30;12.50;;;;;;;21.77;54.22;98013.59;7282535;19;129643;-38
2023/12/21 02:37:02;;;;;;;313.98;10.85;;;;;;;21.76;55.04;98006.75;7284533;19;129462;-38
2023/12/21 02:39:28;;;;;;;286.67;9.90;;;;;;;21.76;55.07;98006.75;7281616;19;131931;-38
2023/12/21 02:41:54;;;;;;;289.33;10.23;;;;;;;21.73;54.85;97996.59;7280090;19;130914;-37
2023/12/21 02:44:19;;;;;;;388.90;14.10;;;;;;;21.71;54.55;97988.13;7282366;19;130883;-38
2023/12/21 02:46:44;;;;;;;285.20;10.15;;;;;;;21.75;55.00;97989.38;7281245;19;131779;-37
2023/12/21 02:49:10;;;;;;;321.52;11.55;;;;;;;21.72;54.96;97979.28;7281222;19;130120;-38
2023/12/21 02:51:35;;;;;;;337.45;11.98;;;;;;;21.73;54.80;97957.34;7281276;19;130484;-38
2023/12/21 02:54:00;;;;;;;371.52;13.32;;;;;;;21.74;54.97;97968.63;7282691;19;131169;-38
2023/12/21 02:56:26;;;;;;;301.65;10.65;;;;;;;21.63;54.95;97953.41;7281439;19;131658;-37
2023/12/21 02:58:51;;;;;;;362.23;13.75;;;;;;;21.72;55.02;97953.13;7280076;19;131339;-38
2023/12/21 03:01:17;;;;;;;331.43;12.07;;;;;;;21.62;54.49;97946.53;7280586;19;131352;-38
2023/12/21 03:03:42;;;;;;;320.88;11.32;;;;;;;21.72;54.83;97968.81;7283528;19;130951;-37
2023/12/21 03:06:07;;;;;;;321.35;11.45;;;;;;;21.68;55.28;97944.00;7282201;19;130825;-38
2023/12/21 03:08:33;;;;;;;334.67;12.20;;;;;;;21.71;54.97;97938.44;7278499;19;130166;-38
2023/12/21 03:10:59;;;;;;;352.83;12.23;;;;;;;21.71;54.64;97945.47;7278613;19;131075;-37
2023/12/21 03:13:24;;;;;;;309.13;11.00;;;;;;;21.70;54.79;97944.66;7282884;19;131109;-36
2023/12/21 03:15:49;;;;;;;302.47;10.57;;;;;;;21.70;55.32;97938.63;7281388;19;130583;-36
2023/12/21 03:18:15;;;;;;;310.67;11.27;;;;;;;21.69;54.89;97931.75;7279608;19;131804;-38
2023/12/21 03:20:40;;;;;;;357.20;12.60;;;;;;;21.68;54.99;97925.69;7279398;19;131754;-38
2023/12/21 03:23:06;;;;;;;313.60;11.23;;;;;;;21.68;55.28;97927.53;7281060;19;129787;-37
2023/12/21 03:25:31;;;;;;;304.25;10.77;;;;;;;21.67;54.90;97923.25;7280939;19;131844;-38
2023/12/21 03:27:57;;;;;;;316.40;11.17;;;;;;;21.67;54.58;97924.09;7280891;19;131727;-37
2023/12/21 03:30:22;;;;;;;390.13;14.00;;;;;;;21.66;54.66;97927.69;7279422;19;129832;-38
2023/12/21 03:32:48;;;;;;;282.63;9.93;;;;;;;21.66;55.00;97914.63;7281760;19;130806;-38
2023/12/21 03:35:13;;;;;;;290.53;10.30;;;;;;;21.65;54.55;97906.97;7280149;19;131352;-36
2023/12/21 03:37:39;;;;;;;332.45;12.15;;;;;;;21.64;55.14;97903.53;7279482;19;131545;-37
2023/12/21 03:40:06;;;;;;;309.42;10.98;;;;;;;21.62;55.16;97908.13;7279678;19;130393;-38
2023/12/21 03:42:32;;;;;;;309.67;11.02;;;;;;;21.64;54.63;97914.00;7275794;19;131222;-37
2023/12/21 03:44:57;;;;;;;347.17;12.38;;;;;;;21.64;55.35;97914.00;7276349;19;130418;-36
2023/12/21 03:47:22;;;;;;;364.03;13.43;;;;;;;21.63;55.30;97917.59;7280079;19;130134;-37
2023/12/21 03:49:48;;;;;;;310.13;11.18;;;;;;;21.62;55.28;97900.28;7280383;19;131800;-37
2023/12/21 03:52:14;;;;;;;319.23;11.47;;;;;;;21.61;55.55;97888.22;7279931;19;129963;-37
2023/12/21 03:54:39;;;;;;;301.20;10.53;;;;;;;21.48;55.09;97855.84;7279265;19;130711;-38
2023/12/21 03:57:05;;;;;;;357.20;12.25;;;;;;;21.60;55.15;97870.88;7280437;19;129835;-38
2023/12/21 03:59:30;;;;;;;331.30;11.98;;;;;;;21.61;54.98;97874.31;7280557;19;131879;-36
2023/12/21 04:01:57;;;;;;;290.02;10.13;;;;;;;21.61;54.75;97882.97;7280134;19;131595;-37
2023/12/21 04:04:22;;;;;;;;;;;;;;;21.60;56.03;97878.72;7279809;19;129898;-36
2023/12/21 04:06:47;;;;;;;359.38;12.57;;;;;;;21.61;55.12;97877.75;7279752;19;131833;-38
2023/12/21 04:09:13;;;;;;;297.08;10.25;;;;;;;21.59;54.81;97871.88;7279860;19;131110;-38
2023/12/21 04:11:38;;;;;;;314.58;10.80;;;;;;;21.58;55.46;97875.50;7277596;19;129713;-38
2023/12/21 04:14:03;;;;;;;310.37;10.70;;;;;;;21.60;55.16;97855.19;7279688;19;129297;-38
2023/12/21 04:16:29;;;;;;;394.67;13.87;;;;;;;21.43;55.25;97832.03;7277534;19;130294;-38
2023/12/21 04:18:54;;;;;;;305.20;10.65;;;;;;;21.58;55.50;97857.19;7277827;19;130940;-37
2023/12/21 04:21:19;;;;;;;304.85;11.05;;;;;;;21.44;55.21;97834.47;7278093;19;131619;-38
2023/12/21 04:23:45;;;;;;;294.45;10.45;;;;;;;21.56;55.59;97853.13;7278794;19;129553;-38
2023/12/21 04:26:21;;;;;;;310.80;10.73;;;;;;;21.52;55.92;97857.91;7279061;19;130954;-38
2023/12/21 04:28:48;;;;;;;365.08;13.55;;;;;;;21.56;55.15;97847.88;7278937;19;132456;-38
2023/12/21 04:31:20;;;;;;;293.17;10.23;;;;;;;21.55;55.70;97847.06;7278179;19;130812;-38
2023/12/21 04:33:49;;;;;;;309.83;10.73;;;;;;;21.54;55.65;97842.84;7279229;19;131290;-38
2023/12/21 04:36:15;;;;;;;329.70;11.63;;;;;;;21.54;55.64;97835.00;7278337;19;130777;-38
2023/12/21 04:38:40;;;;;;;394.80;14.70;;;;;;;21.55;55.38;97831.38;7278186;19;130414;-38
2023/12/21 04:41:05;;;;;;;341.20;12.13;;;;;;;21.51;54.97;97830.13;7277789;19;131435;-37
2023/12/21 04:43:31;;;;;;;339.98;12.10;;;;;;;21.51;55.47;97835.38;7278970;19;131152;-37
2023/12/21 04:45:57;;;;;;;379.73;13.67;;;;;;;21.52;55.62;97844.81;7277930;19;132082;-37
2023/12/21 04:48:22;;;;;;;349.42;12.77;;;;;;;21.52;55.63;97833.53;7279368;19;131089;-38
2023/12/21 04:50:47;;;;;;;287.42;10.00;;;;;;;21.50;55.64;97823.28;7273981;19;130038;-37
2023/12/21 04:53:13;;;;;;;323.63;11.63;;;;;;;21.52;55.57;97821.28;7278645;19;130743;-38
2023/12/21 04:55:38;;;;;;;365.52;13.13;;;;;;;21.50;55.61;97820.66;7276834;19;130962;-39
2023/12/21 04:58:03;;;;;;;374.53;13.50;;;;;;;21.40;55.44;97798.41;7275257;19;130841;-37
2023/12/21 05:00:29;;;;;;;299.90;10.70;;;;;;;21.52;55.67;97817.84;7275242;19;131740;-38
2023/12/21 05:02:55;;;;;;;282.42;9.98;;;;;;;21.51;55.68;97814.44;7275322;19;131312;-37
2023/12/21 05:05:21;;;;;;;395.60;14.13;;;;;;;21.50;55.61;97799.72;7277541;19;130300;-38
2023/12/21 05:07:47;;;;;;;310.73;11.03;;;;;;;21.49;55.23;97799.91;7276922;19;130992;-38
2023/12/21 05:10:12;;;;;;;316.50;10.95;;;;;;;21.46;55.81;97806.34;7276342;19;129984;-38
2023/12/21 05:12:38;;;;;;;374.65;13.13;;;;;;;21.49;55.27;97819.03;7274873;19;130501;-38
2023/12/21 05:15:03;;;;;;;365.17;12.93;;;;;;;21.48;56.00;97814.81;7277497;19;130607;-37
2023/12/21 05:17:29;;;;;;;472.23;18.35;;;;;;;21.48;55.29;97804.38;7274719;19;130257;-38
2023/12/21 05:19:54;;;;;;;277.75;9.85;;;;;;;21.47;55.26;97807.94;7272955;19;129750;-38
2023/12/21 05:22:19;;;;;;;385.07;13.87;;;;;;;21.46;55.27;97801.09;7274267;19;131737;-38
2023/12/21 05:24:45;;;;;;;352.10;12.35;;;;;;;21.47;55.52;97802.72;7274726;19;131492;-38
2023/12/21 05:27:10;;;;;;;317.60;11.38;;;;;;;21.47;55.70;97796.69;7275202;19;130420;-38
2023/12/21 05:29:35;;;;;;;343.95;12.02;;;;;;;21.46;55.75;97787.22;7274584;19;130544;-38
2023/12/21 05:32:01;;;;;;;328.43;11.67;;;;;;;21.46;55.47;97789.84;7274775;19;130074;-38
2023/12/21 05:34:26;;;;;;;337.45;12.00;;;;;;;21.46;55.33;97795.88;7277801;19;132265;-38
2023/12/21 05:36:52;;;;;;;323.80;11.82;;;;;;;21.33;56.02;97763.53;7274289;19;129232;-38
2023/12/21 05:39:17;;;;;;;296.60;10.40;;;;;;;21.45;55.39;97786.41;7276275;19;131195;-38
2023/12/21 05:41:43;;;;;;;393.50;13.80;;;;;;;21.28;55.70;97752.81;7274357;19;129941;-38
2023/12/21 05:44:08;;;;;;;304.30;10.87;;;;;;;21.43;55.93;97775.34;7275515;19;130882;-38
2023/12/21 05:46:34;;;;;;;331.15;12.10;;;;;;;21.43;55.31;97783.19;7274512;19;130442;-38
2023/12/21 05:48:59;;;;;;;281.00;9.95;;;;;;;21.43;55.68;97779.75;7274836;19;131376;-38
2023/12/21 05:51:24;;;;;;;413.13;14.70;;;;;;;21.44;55.22;97776.94;7274723;19;131261;-37
2023/12/21 05:53:50;;;;;;;282.83;10.07;;;;;;;21.40;55.31;97770.44;7276368;19;130102;-37
2023/12/21 05:56:15;;;;;;;302.02;10.32;;;;;;;21.43;55.38;97785.78;7274982;19;130487;-37
2023/12/21 05:58:40;;;;;;;361.40;13.40;;;;;;;21.39;55.61;97781.91;7273956;19;129821;-38
2023/12/21 06:01:06;;;;;;;361.92;12.60;;;;;;;21.40;55.82;97782.72;7274893;19;132026;-39
2023/12/21 06:03:31;;;;;;;322.70;11.73;;;;;;;21.40;56.11;97775.69;7281524;19;129869;-38
2023/12/21 06:05:57;;;;;;;384.55;13.85;;;;;;;21.40;55.68;97769.66;7276140;19;131705;-37
2023/12/21 06:08:22;;;;;;;337.83;11.85;;;;;;;21.41;55.41;97776.50;7281622;19;130860;-39
2023/12/21 06:10:48;;;;;;;309.08;11.15;;;;;;;21.41;55.53;97777.31;7280248;19;129843;-38
2023/12/21 06:13:13;;;;;;;400.85;14.55;;;;;;;21.39;56.10;97766.22;7274466;19;130072;-39
2023/12/21 06:15:38;;;;;;;258.67;9.10;;;;;;;21.39;55.91;97779.28;7278642;19;131324;-37
2023/12/21 06:18:04;;;;;;;414.67;15.15;;;;;;;21.38;55.51;97769.84;7279762;19;131052;-37
2023/12/21 06:20:30;;;;;;;561.50;21.73;;;;;;;21.39;56.06;97768.84;7277333;19;129497;-35
2023/12/21 06:22:56;;;;;;;381.30;13.50;;;;;;;21.38;55.85;97769.84;7274702;19;130431;-38
2023/12/21 06:25:21;;;;;;;338.43;12.03;;;;;;;21.38;55.53;97776.88;7277947;19;130126;-38
2023/12/21 06:27:47;;;;;;;421.47;14.93;;;;;;;21.37;56.16;97749.91;7278327;19;130958;-36
2023/12/21 06:30:13;;;;;;;410.33;14.63;;;;;;;21.36;55.78;97758.75;7278634;19;132389;-40
2023/12/21 06:32:39;;;;;;;;;;;;;;;21.39;57.28;97768.84;7274908;19;130997;-37
2023/12/21 06:35:05;;;;;;;375.60;13.30;;;;;;;21.37;55.76;97760.38;7278273;19;131595;-35
2023/12/21 06:37:30;;;;;;;440.93;16.10;;;;;;;21.39;55.78;97753.16;7275851;19;129968;-34
2023/12/21 06:39:56;;;;;;;375.63;13.38;;;;;;;21.38;55.60;97755.97;7275932;19;129727;-36
2023/12/21 06:42:22;;;;;;;335.03;12.03;;;;;;;21.36;55.64;97744.88;7272965;19;130258;-37
2023/12/21 06:44:47;;;;;;;375.05;13.13;;;;;;;21.23;56.06;97731.63;7275428;19;131191;-38
2023/12/21 06:47:12;;;;;;;406.37;14.57;;;;;;;21.34;55.55;97755.50;7276849;19;130300;-36
2023/12/21 06:49:38;;;;;;;354.23;12.60;;;;;;;21.33;55.50;97743.44;7277238;19;130958;-38
2023/12/21 06:52:03;;;;;;;334.13;11.60;;;;;;;21.34;55.96;97734.59;7275083;19;130754;-34
2023/12/21 06:54:28;;;;;;;435.85;15.93;;;;;;;21.33;55.99;97730.38;7275683;19;130812;-38
2023/12/21 06:56:54;;;;;;;361.40;12.55;;;;;;;21.33;55.73;97725.16;7277662;19;130896;-36
2023/12/21 06:59:19;;;;;;;355.20;12.50;;;;;;;21.20;55.96;97698.84;7277167;19;133845;-36
2023/12/21 07:01:44;;;;;;;327.60;11.48;;;;;;;21.32;56.06;97710.44;7275170;19;131503;-36
2023/12/21 07:04:11;;;;;;;401.33;14.37;;;;;;;21.31;55.94;97708.81;7276549;19;129734;-39
2023/12/21 07:06:37;;;;;;;429.70;15.60;;;;;;;21.31;55.99;97706.22;7276064;19;131038;-37
2023/12/21 07:09:02;;;;;;;334.77;11.98;;;;;;;21.31;55.32;97693.16;7275566;19;130124;-37
2023/12/21 07:11:27;;;;;;;350.70;12.48;;;;;;;21.29;55.41;97679.44;7275001;19;131834;-35
2023/12/21 07:13:54;;;;;;;376.45;13.15;;;;;;;21.29;55.65;97674.22;7274407;19;129789;-39
2023/12/21 07:16:19;;;;;;;286.43;10.13;;;;;;;21.30;56.04;97675.03;7278735;19;130059;-37
2023/12/21 07:18:45;;;;;;;441.40;17.03;;;;;;;21.28;55.57;97662.16;7277671;19;131263;-35
2023/12/21 07:21:10;;;;;;;314.05;11.02;;;;;;;21.13;55.66;97639.66;7279989;19;131428;-35
2023/12/21 07:23:36;;;;;;;406.20;14.90;;;;;;;21.27;56.11;97660.50;7279545;19;131178;-35
2023/12/21 07:26:01;;;;;;;322.17;11.33;;;;;;;21.28;55.55;97662.16;7280283;19;131040;-38
2023/12/21 07:28:28;;;;;;;346.23;12.53;;;;;;;21.28;55.61;97654.31;7279047;19;129989;-35
2023/12/21 07:30:54;;;;;;;271.40;9.38;;;;;;;21.26;55.65;97638.00;7279554;19;130431;-35
2023/12/21 07:33:19;;;;;;;350.63;12.32;;;;;;;21.27;55.48;97642.22;7280448;19;129692;-36
2023/12/21 07:35:44;;;;;;;313.52;10.82;;;;;;;21.27;56.04;97628.38;7281292;19;132180;-36
2023/12/21 07:38:10;;;;;;;312.53;11.00;;;;;;;21.26;55.86;97617.09;7280752;19;130805;-34
2023/12/21 07:40:35;;;;;;;370.35;13.43;;;;;;;21.26;55.86;97609.25;7277584;19;130401;-38
2023/12/21 07:43:00;;;;;;;350.38;12.38;;;;;;;21.26;55.88;97617.09;7279339;19;130518;-39
2023/12/21 07:45:26;;;;;;;303.25;10.82;;;;;;;21.25;56.19;97594.56;7280808;19;130497;-39
2023/12/21 07:47:51;;;;;;;286.42;10.15;;;;;;;21.25;55.47;97597.19;7280589;19;130394;-36
2023/12/21 07:50:16;;;;;;;325.97;11.33;;;;;;;21.24;55.96;97587.72;7280046;19;130974;-38
2023/12/21 07:52:42;;;;;;;377.27;13.68;;;;;;;21.23;55.79;97583.50;7278928;19;131009;-36
2023/12/21 07:55:07;;;;;;;306.42;10.98;;;;;;;21.23;56.24;97583.50;7280593;19;130093;-34
2023/12/21 07:57:33;;;;;;;335.20;12.30;;;;;;;21.22;55.77;97566.19;7279555;19;130175;-36
2023/12/21 07:59:58;;;;;;;332.80;11.80;;;;;;;21.22;55.48;97568.78;7279048;19;131673;-36
2023/12/21 08:02:24;;;;;;;365.17;12.80;;;;;;;21.22;56.02;97568.00;7277994;19;129861;-38
2023/12/21 08:04:50;;;;;;;279.70;9.70;;;;;;;21.20;56.14;97546.47;7279365;19;130890;-39
2023/12/21 08:07:15;;;;;;;286.05;10.27;;;;;;;21.13;56.05;97528.13;7279677;19;130943;-38
2023/12/21 08:09:41;;;;;;;425.63;15.30;;;;;;;21.20;55.97;97536.84;7277875;19;131099;-38
2023/12/21 08:12:08;;;;;;;266.33;9.60;;;;;;;21.21;56.27;97525.38;7278232;19;130888;-39
2023/12/21 08:14:36;;;;;;;272.23;9.98;;;;;;;21.21;55.87;97520.16;7278446;19;129604;-35
2023/12/21 08:17:06;;;;;;;304.95;10.98;;;;;;;21.20;55.65;97502.03;7279196;19;132165;-35
2023/12/21 08:19:32;;;;;;;431.38;16.27;;;;;;;21.20;55.97;97507.28;7276498;19;130226;-39
2023/12/21 08:21:57;;;;;;;358.17;12.73;;;;;;;21.19;56.00;97498.63;7278376;19;130598;-37
2023/12/21 08:24:22;;;;;;;334.13;11.83;;;;;;;21.19;55.86;97487.38;7279512;19;130064;-39
2023/12/21 08:26:48;;;;;;;315.10;11.60;;;;;;;21.20;55.89;97484.56;7277576;19;129884;-38
2023/12/21 08:29:13;;;;;;;336.20;11.93;;;;;;;21.19;56.34;97471.69;7278825;19;131258;-35
2023/12/21 08:31:38;;;;;;;322.38;11.35;;;;;;;21.18;55.73;97470.88;7277002;19;131020;-35
2023/12/21 08:34:04;;;;;;;263.27;9.15;;;;;;;21.17;56.36;97456.19;7279452;19;129320;-35
2023/12/21 08:36:29;;;;;;;342.50;12.17;;;;;;;21.17;55.80;97450.94;7279096;19;131321;-35
2023/12/21 08:38:55;;;;;;;380.30;13.30;;;;;;;21.14;55.93;97435.66;7277140;19;131674;-37
2023/12/21 08:41:21;;;;;;;320.97;11.37;;;;;;;21.03;55.72;97417.88;7279100;19;132071;-39
2023/12/21 08:43:46;;;;;;;329.27;11.60;;;;;;;21.00;55.57;97405.22;7279097;19;130977;-40
2023/12/21 08:46:12;;;;;;;285.27;10.07;;;;;;;21.17;55.81;97419.59;7278666;19;129980;-36
2023/12/21 08:48:37;;;;;;;341.65;12.40;;;;;;;21.16;56.35;97391.88;7276994;19;130463;-37
2023/12/21 08:51:03;;;;;;;291.70;10.65;;;;;;;21.16;56.36;97397.09;7278566;19;130598;-38
2023/12/21 08:53:28;;;;;;;348.33;12.70;;;;;;;21.16;56.30;97385.81;7277760;19;130483;-37
2023/12/21 08:55:53;;;;;;;334.25;11.90;;;;;;;21.14;55.77;97370.34;7278406;19;131658;-34
2023/12/21 08:58:19;;;;;;;327.27;11.30;;;;;;;21.15;56.19;97364.13;7279185;19;130787;-37
2023/12/21 09:00:44;;;;;;;331.42;11.63;;;;;;;21.14;56.42;97372.94;7276183;19;131749;-39
2023/12/21 09:03:10;;;;;;;294.25;10.43;;;;;;;21.15;55.82;97338.00;7275698;19;131364;-38
2023/12/21 09:05:35;;;;;;;345.85;11.98;;;;;;;21.11;56.27;97328.91;7277755;19;130874;-37
2023/12/21 09:08:00;;;;;;;355.73;12.55;;;;;;;21.11;56.34;97307.19;7278299;19;130136;-38
2023/12/21 09:10:26;;;;;;;348.50;12.40;;;;;;;21.14;55.96;97312.06;7276531;19;130427;-36
2023/12/21 09:12:51;;;;;;;299.13;10.68;;;;;;;21.15;55.77;97313.66;7277918;19;131989;-36
2023/12/21 09:15:17;;;;;;;341.70;12.07;;;;;;;21.13;55.85;97308.63;7278543;19;130224;-38
2023/12/21 09:17:42;;;;;;;327.60;11.73;;;;;;;21.13;55.95;97292.97;7278296;19;130880;-35
2023/12/21 09:20:09;;;;;;;292.88;10.25;;;;;;;21.12;56.13;97301.78;7275900;19;130277;-39
2023/12/21 09:22:34;;;;;;;350.30;12.32;;;;;;;21.12;56.28;97270.44;7273864;19;131311;-36
2023/12/21 09:25:01;;;;;;;368.92;12.90;;;;;;;21.11;55.80;97268.81;7277367;19;131109;-35
2023/12/21 09:27:28;;;;;;;310.00;11.00;;;;;;;21.11;55.67;97258.38;7276911;19;131029;-35
2023/12/21 09:29:54;;;;;;;316.92;11.10;;;;;;;21.11;55.89;97258.38;7276248;19;131264;-38
2023/12/21 09:32:19;;;;;;;238.80;8.48;;;;;;;21.13;56.34;97259.00;7276453;19;131107;-39
2023/12/21 09:34:47;;;;;;;396.35;14.05;;;;;;;21.11;56.49;97242.69;7276354;19;132131;-35
2023/12/21 09:37:14;;;;;;;321.92;11.45;;;;;;;21.10;56.11;97220.19;7281644;19;130504;-35
2023/12/21 09:39:39;;;;;;;330.13;11.80;;;;;;;21.11;56.05;97226.22;7283165;19;131179;-39
2023/12/21 09:42:05;;;;;;;312.13;11.07;;;;;;;21.09;56.47;97208.13;7282434;19;130100;-34
2023/12/21 09:44:32;;;;;;;392.00;13.93;;;;;;;21.10;56.29;97214.97;7283708;19;129889;-37
2023/12/21 09:47:04;;;;;;;297.48;10.60;;;;;;;21.09;56.12;97192.44;7283755;19;132285;-35
2023/12/21 09:49:35;;;;;;;286.17;9.88;;;;;;;21.08;56.47;97185.63;7282936;19;131271;-33
2023/12/21 09:52:01;;;;;;;303.65;10.57;;;;;;;21.08;55.95;97164.72;7282543;19;132001;-38
2023/12/21 09:54:27;;;;;;;368.67;12.80;;;;;;;21.08;56.55;97154.28;7284329;19;129959;-33
2023/12/21 09:56:53;;;;;;;288.77;10.10;;;;;;;20.94;56.18;97141.31;7283091;19;129998;-35
2023/12/21 09:59:19;;;;;;;311.83;10.43;;;;;;;21.08;56.52;97146.44;7281994;19;129475;-38
2023/12/21 10:01:44;;;;;;;295.33;10.30;;;;;;;21.08;56.44;97149.03;7282931;19;131634;-35
2023/12/21 10:04:10;;;;;;;387.55;13.88;;;;;;;21.08;56.58;97125.53;7283935;19;130241;-40
2023/12/21 10:06:37;;;;;;;298.20;10.40;;;;;;;21.07;56.29;97123.94;7284756;19;130447;-34
2023/12/21 10:09:04;;;;;;;285.27;9.93;;;;;;;21.07;56.19;97118.72;7281842;19;131744;-36
2023/12/21 10:11:30;;;;;;;319.42;11.35;;;;;;;21.06;55.90;97124.91;7282054;19;131268;-35
2023/12/21 10:13:57;;;;;;;336.48;11.90;;;;;;;21.06;56.60;97114.47;7283919;19;130089;-38
2023/12/21 10:16:26;;;;;;;308.90;10.98;;;;;;;21.05;56.53;97117.28;7284168;19;130962;-36
2023/12/21 10:18:51;;;;;;;383.25;14.10;;;;;;;21.04;56.39;97095.56;7281404;19;131203;-37
2023/12/21 10:21:17;;;;;;;289.80;10.43;;;;;;;21.04;56.38;97095.56;7281189;19;131662;-36
2023/12/21 10:23:42;;;;;;;396.45;14.20;;;;;;;21.05;56.55;97078.91;7280829;19;130347;-38
2023/12/21 10:26:08;;;;;;;299.52;10.63;;;;;;;21.06;55.97;97083.13;7283645;19;129651;-37
2023/12/21 10:28:33;;;;;;;302.00;10.70;;;;;;;21.04;56.61;97086.94;7282582;19;131122;-40
2023/12/21 10:31:02;;;;;;;306.92;10.73;;;;;;;21.01;56.62;97075.06;7281176;19;130312;-38
2023/12/21 10:33:28;;;;;;;376.20;13.38;;;;;;;21.04;56.34;97064.22;7282752;19;130001;-37
2023/12/21 10:35:54;;;;;;;287.87;9.97;;;;;;;21.04;56.28;97058.22;7283785;19;129613;-35
2023/12/21 10:38:21;;;;;;;244.15;8.52;;;;;;;21.04;56.67;97048.53;7283106;19;131741;-35
2023/12/21 10:40:47;;;;;;;403.38;15.20;;;;;;;21.02;56.29;97045.34;7280425;19;129575;-40
2023/12/21 10:43:14;;;;;;;372.50;13.47;;;;;;;21.03;56.38;97033.06;7277855;19;131122;-37
2023/12/21 10:45:42;;;;;;;;;;;;;;;21.03;57.47;97044.34;7278779;19;131779;-37
2023/12/21 10:48:12;;;;;;;320.83;11.75;;;;;;;21.04;56.73;97038.09;7276666;19;131395;-35
2023/12/21 10:50:38;;;;;;;314.77;11.13;;;;;;;20.99;56.48;97040.50;7280957;19;130951;-34
2023/12/21 10:53:04;;;;;;;393.63;13.93;;;;;;;21.02;56.45;97039.31;7281487;19;130456;-37
2023/12/21 10:55:30;;;;;;;316.70;10.98;;;;;;;21.03;55.97;97022.63;7284142;19;130988;-35